sensor_id;sensor_type;location;lat;lon;timestamp;P1;durP1;ratioP1;P2;durP2;ratioP2
5149;SDS011;2593;52.466;13.436;2023-03-02T00:00:41;43.47;;;18.20;;
5149;SDS011;2593;52.466;13.436;2023-03-02T00:03:09;40.93;;;18.37;;
5149;SDS011;2593;52.466;13.436;2023-03-02T00:05:35;45.33;;;18.70;;
5149;SDS011;2593;52.466;13.436;2023-03-02T00:08:02;42.77;;;17.40;;
5149;SDS011;2593;52.466;13.436;2023-03-02T00:10:29;50.33;;;17.80;;
5149;SDS011;2593;52.466;13.436;2023-03-02T00:12:55;41.43;;;17.87;;
5149;SDS011;2593;52.466;13.436;2023-03-02T00:15:21;51.27;;;17.67;;
5149;SDS011;2593;52.466;13.436;2023-03-02T00:17:47;42.13;;;15.83;;
5149;SDS011;2593;52.466;13.436;2023-03-02T00:20:12;51.00;;;18.57;;
5149;SDS011;2593;52.466;13.436;2023-03-02T00:22:39;45.90;;;16.63;;
5149;SDS011;2593;52.466;13.436;2023-03-02T00:25:06;43.50;;;19.23;;
5149;SDS011;2593;52.466;13.436;2023-03-02T00:27:33;39.03;;;15.03;;
5149;SDS011;2593;52.466;13.436;2023-03-02T00:29:58;46.97;;;20.10;;
5149;SDS011;2593;52.466;13.436;2023-03-02T00:32:24;45.00;;;18.47;;
5149;SDS011;2593;52.466;13.436;2023-03-02T00:34:50;50.20;;;17.73;;
5149;SDS011;2593;52.466;13.436;2023-03-02T00:37:16;43.03;;;17.47;;
5149;SDS011;2593;52.466;13.436;2023-03-02T00:39:41;30.70;;;15.40;;
5149;SDS011;2593;52.466;13.436;2023-03-02T00:42:07;41.40;;;17.40;;
5149;SDS011;2593;52.466;13.436;2023-03-02T00:44:33;32.30;;;15.80;;
5149;SDS011;2593;52.466;13.436;2023-03-02T00:46:58;38.30;;;15.30;;
5149;SDS011;2593;52.466;13.436;2023-03-02T00:49:24;40.57;;;15.70;;
5149;SDS011;2593;52.466;13.436;2023-03-02T00:51:50;36.27;;;16.60;;
5149;SDS011;2593;52.466;13.436;2023-03-02T00:54:16;27.17;;;13.00;;
5149;SDS011;2593;52.466;13.436;2023-03-02T00:56:41;30.50;;;14.67;;
5149;SDS011;2593;52.466;13.436;2023-03-02T00:59:09;33.03;;;15.83;;
5149;SDS011;2593;52.466;13.436;2023-03-02T01:01:57;37.07;;;16.03;;
5149;SDS011;2593;52.466;13.436;2023-03-02T01:04:24;35.90;;;14.83;;
5149;SDS011;2593;52.466;13.436;2023-03-02T01:06:54;26.33;;;12.80;;
5149;SDS011;2593;52.466;13.436;2023-03-02T01:09:20;29.70;;;13.50;;
5149;SDS011;2593;52.466;13.436;2023-03-02T01:11:46;30.80;;;15.63;;
5149;SDS011;2593;52.466;13.436;2023-03-02T01:14:12;29.87;;;14.67;;
5149;SDS011;2593;52.466;13.436;2023-03-02T01:16:37;28.47;;;13.90;;
5149;SDS011;2593;52.466;13.436;2023-03-02T01:19:03;32.57;;;14.70;;
5149;SDS011;2593;52.466;13.436;2023-03-02T01:21:28;35.93;;;14.97;;
5149;SDS011;2593;52.466;13.436;2023-03-02T01:23:54;23.00;;;12.10;;
5149;SDS011;2593;52.466;13.436;2023-03-02T01:26:20;32.27;;;13.80;;
5149;SDS011;2593;52.466;13.436;2023-03-02T01:28:45;22.97;;;12.90;;
5149;SDS011;2593;52.466;13.436;2023-03-02T01:31:11;24.00;;;12.40;;
5149;SDS011;2593;52.466;13.436;2023-03-02T01:33:36;28.13;;;14.93;;
5149;SDS011;2593;52.466;13.436;2023-03-02T01:36:02;20.67;;;12.50;;
5149;SDS011;2593;52.466;13.436;2023-03-02T01:38:28;24.30;;;12.93;;
5149;SDS011;2593;52.466;13.436;2023-03-02T01:47:22;24.87;;;11.93;;
5149;SDS011;2593;52.466;13.436;2023-03-02T01:49:58;21.50;;;12.03;;
5149;SDS011;2593;52.466;13.436;2023-03-02T01:52:41;20.17;;;11.67;;
5149;SDS011;2593;52.466;13.436;2023-03-02T01:55:08;28.23;;;13.73;;
5149;SDS011;2593;52.466;13.436;2023-03-02T01:57:37;37.93;;;13.40;;
5149;SDS011;2593;52.466;13.436;2023-03-02T02:00:08;35.23;;;13.60;;
5149;SDS011;2593;52.466;13.436;2023-03-02T02:02:38;26.60;;;12.30;;
5149;SDS011;2593;52.466;13.436;2023-03-02T02:05:10;24.80;;;13.20;;
5149;SDS011;2593;52.466;13.436;2023-03-02T02:07:38;19.77;;;12.87;;
5149;SDS011;2593;52.466;13.436;2023-03-02T02:10:04;24.87;;;14.10;;
5149;SDS011;2593;52.466;13.436;2023-03-02T02:12:31;31.97;;;13.97;;
5149;SDS011;2593;52.466;13.436;2023-03-02T02:14:56;29.27;;;13.93;;
5149;SDS011;2593;52.466;13.436;2023-03-02T02:17:24;26.33;;;13.50;;
5149;SDS011;2593;52.466;13.436;2023-03-02T02:27:55;22.03;;;12.07;;
5149;SDS011;2593;52.466;13.436;2023-03-02T02:30:21;27.40;;;13.37;;
5149;SDS011;2593;52.466;13.436;2023-03-02T02:32:49;26.20;;;13.40;;
5149;SDS011;2593;52.466;13.436;2023-03-02T02:35:22;28.73;;;12.90;;
5149;SDS011;2593;52.466;13.436;2023-03-02T02:38:00;24.03;;;12.70;;
5149;SDS011;2593;52.466;13.436;2023-03-02T02:43:29;21.10;;;11.70;;
5149;SDS011;2593;52.466;13.436;2023-03-02T02:45:57;30.73;;;13.63;;
5149;SDS011;2593;52.466;13.436;2023-03-02T02:48:24;23.43;;;12.00;;
5149;SDS011;2593;52.466;13.436;2023-03-02T02:50:54;28.27;;;12.87;;
5149;SDS011;2593;52.466;13.436;2023-03-02T02:56:08;25.90;;;13.93;;
5149;SDS011;2593;52.466;13.436;2023-03-02T02:58:48;24.20;;;13.23;;
5149;SDS011;2593;52.466;13.436;2023-03-02T03:01:16;31.37;;;12.40;;
5149;SDS011;2593;52.466;13.436;2023-03-02T03:03:54;29.30;;;13.73;;
5149;SDS011;2593;52.466;13.436;2023-03-02T03:06:23;29.93;;;13.10;;
5149;SDS011;2593;52.466;13.436;2023-03-02T03:09:00;24.73;;;12.87;;
5149;SDS011;2593;52.466;13.436;2023-03-02T03:11:27;22.80;;;12.17;;
5149;SDS011;2593;52.466;13.436;2023-03-02T03:14:13;26.23;;;13.40;;
5149;SDS011;2593;52.466;13.436;2023-03-02T03:16:41;28.93;;;12.63;;
5149;SDS011;2593;52.466;13.436;2023-03-02T03:19:16;26.10;;;12.60;;
5149;SDS011;2593;52.466;13.436;2023-03-02T03:21:53;27.17;;;13.93;;
5149;SDS011;2593;52.466;13.436;2023-03-02T03:24:21;22.03;;;12.20;;
5149;SDS011;2593;52.466;13.436;2023-03-02T03:26:47;29.90;;;13.20;;
5149;SDS011;2593;52.466;13.436;2023-03-02T03:29:14;34.43;;;14.27;;
5149;SDS011;2593;52.466;13.436;2023-03-02T03:31:40;29.47;;;14.13;;
5149;SDS011;2593;52.466;13.436;2023-03-02T03:34:07;25.27;;;12.27;;
5149;SDS011;2593;52.466;13.436;2023-03-02T03:36:33;27.40;;;14.30;;
5149;SDS011;2593;52.466;13.436;2023-03-02T03:39:00;27.90;;;14.30;;
5149;SDS011;2593;52.466;13.436;2023-03-02T03:41:27;32.53;;;14.80;;
5149;SDS011;2593;52.466;13.436;2023-03-02T03:43:53;26.90;;;13.33;;
5149;SDS011;2593;52.466;13.436;2023-03-02T03:46:18;30.07;;;15.10;;
5149;SDS011;2593;52.466;13.436;2023-03-02T03:48:44;33.37;;;15.20;;
5149;SDS011;2593;52.466;13.436;2023-03-02T03:51:10;27.83;;;14.17;;
5149;SDS011;2593;52.466;13.436;2023-03-02T03:53:36;26.60;;;13.37;;
5149;SDS011;2593;52.466;13.436;2023-03-02T03:56:02;28.83;;;15.40;;
5149;SDS011;2593;52.466;13.436;2023-03-02T03:58:29;31.67;;;14.30;;
5149;SDS011;2593;52.466;13.436;2023-03-02T04:00:55;23.60;;;14.60;;
5149;SDS011;2593;52.466;13.436;2023-03-02T04:03:22;32.00;;;13.83;;
5149;SDS011;2593;52.466;13.436;2023-03-02T04:05:49;31.67;;;14.43;;
5149;SDS011;2593;52.466;13.436;2023-03-02T04:08:15;27.87;;;14.60;;
5149;SDS011;2593;52.466;13.436;2023-03-02T04:10:40;30.60;;;15.27;;
5149;SDS011;2593;52.466;13.436;2023-03-02T04:13:06;27.77;;;13.50;;
5149;SDS011;2593;52.466;13.436;2023-03-02T04:15:32;26.77;;;14.43;;
5149;SDS011;2593;52.466;13.436;2023-03-02T04:17:58;34.03;;;15.80;;
5149;SDS011;2593;52.466;13.436;2023-03-02T04:20:24;30.10;;;14.30;;
5149;SDS011;2593;52.466;13.436;2023-03-02T04:22:51;32.23;;;15.00;;
5149;SDS011;2593;52.466;13.436;2023-03-02T04:25:18;32.27;;;16.03;;
5149;SDS011;2593;52.466;13.436;2023-03-02T04:27:46;33.43;;;14.17;;
5149;SDS011;2593;52.466;13.436;2023-03-02T04:30:14;33.27;;;15.57;;
5149;SDS011;2593;52.466;13.436;2023-03-02T04:32:42;30.53;;;15.33;;
5149;SDS011;2593;52.466;13.436;2023-03-02T04:35:08;34.87;;;15.57;;
5149;SDS011;2593;52.466;13.436;2023-03-02T04:37:35;31.47;;;14.90;;
5149;SDS011;2593;52.466;13.436;2023-03-02T04:40:01;26.00;;;14.60;;
5149;SDS011;2593;52.466;13.436;2023-03-02T04:42:26;34.10;;;15.70;;
5149;SDS011;2593;52.466;13.436;2023-03-02T04:44:52;37.70;;;15.40;;
5149;SDS011;2593;52.466;13.436;2023-03-02T04:47:17;36.70;;;16.07;;
5149;SDS011;2593;52.466;13.436;2023-03-02T04:49:43;40.03;;;17.23;;
5149;SDS011;2593;52.466;13.436;2023-03-02T04:52:08;34.37;;;16.17;;
5149;SDS011;2593;52.466;13.436;2023-03-02T04:54:34;30.43;;;15.17;;
5149;SDS011;2593;52.466;13.436;2023-03-02T04:57:00;42.87;;;17.90;;
5149;SDS011;2593;52.466;13.436;2023-03-02T04:59:26;32.83;;;17.20;;
5149;SDS011;2593;52.466;13.436;2023-03-02T05:01:54;33.13;;;16.27;;
5149;SDS011;2593;52.466;13.436;2023-03-02T05:04:20;32.70;;;15.07;;
5149;SDS011;2593;52.466;13.436;2023-03-02T05:06:46;56.43;;;17.20;;
5149;SDS011;2593;52.466;13.436;2023-03-02T05:09:14;42.40;;;16.27;;
5149;SDS011;2593;52.466;13.436;2023-03-02T05:11:40;36.07;;;17.43;;
5149;SDS011;2593;52.466;13.436;2023-03-02T05:14:06;37.43;;;17.67;;
5149;SDS011;2593;52.466;13.436;2023-03-02T05:16:35;37.10;;;16.60;;
5149;SDS011;2593;52.466;13.436;2023-03-02T05:19:02;40.07;;;17.63;;
5149;SDS011;2593;52.466;13.436;2023-03-02T05:21:29;34.13;;;15.67;;
5149;SDS011;2593;52.466;13.436;2023-03-02T05:23:55;41.53;;;16.80;;
5149;SDS011;2593;52.466;13.436;2023-03-02T05:26:21;40.20;;;17.93;;
5149;SDS011;2593;52.466;13.436;2023-03-02T05:28:46;40.27;;;17.63;;
5149;SDS011;2593;52.466;13.436;2023-03-02T05:31:20;35.07;;;18.43;;
5149;SDS011;2593;52.466;13.436;2023-03-02T05:33:58;35.23;;;18.23;;
5149;SDS011;2593;52.466;13.436;2023-03-02T05:36:24;39.77;;;17.87;;
5149;SDS011;2593;52.466;13.436;2023-03-02T05:38:50;38.87;;;18.67;;
5149;SDS011;2593;52.466;13.436;2023-03-02T05:41:16;49.03;;;20.00;;
5149;SDS011;2593;52.466;13.436;2023-03-02T05:43:41;46.97;;;21.00;;
5149;SDS011;2593;52.466;13.436;2023-03-02T05:46:07;40.03;;;20.00;;
5149;SDS011;2593;52.466;13.436;2023-03-02T05:48:33;43.40;;;20.00;;
5149;SDS011;2593;52.466;13.436;2023-03-02T05:50:59;50.03;;;21.80;;
5149;SDS011;2593;52.466;13.436;2023-03-02T05:53:24;49.57;;;20.67;;
5149;SDS011;2593;52.466;13.436;2023-03-02T05:55:50;44.50;;;21.47;;
5149;SDS011;2593;52.466;13.436;2023-03-02T05:58:17;50.83;;;21.70;;
5149;SDS011;2593;52.466;13.436;2023-03-02T06:00:44;42.57;;;20.23;;
5149;SDS011;2593;52.466;13.436;2023-03-02T06:03:11;38.10;;;20.80;;
5149;SDS011;2593;52.466;13.436;2023-03-02T06:05:37;41.40;;;21.87;;
5149;SDS011;2593;52.466;13.436;2023-03-02T06:08:03;46.37;;;21.90;;
5149;SDS011;2593;52.466;13.436;2023-03-02T06:10:29;47.73;;;19.30;;
5149;SDS011;2593;52.466;13.436;2023-03-02T06:12:55;43.90;;;21.50;;
5149;SDS011;2593;52.466;13.436;2023-03-02T06:15:21;69.13;;;23.53;;
5149;SDS011;2593;52.466;13.436;2023-03-02T06:17:46;41.13;;;20.33;;
5149;SDS011;2593;52.466;13.436;2023-03-02T06:20:13;45.77;;;22.03;;
5149;SDS011;2593;52.466;13.436;2023-03-02T06:22:40;53.53;;;22.33;;
5149;SDS011;2593;52.466;13.436;2023-03-02T06:25:09;44.50;;;21.60;;
5149;SDS011;2593;52.466;13.436;2023-03-02T06:27:37;56.03;;;24.17;;
5149;SDS011;2593;52.466;13.436;2023-03-02T06:30:05;49.43;;;23.90;;
5149;SDS011;2593;52.466;13.436;2023-03-02T06:32:31;55.53;;;23.70;;
5149;SDS011;2593;52.466;13.436;2023-03-02T06:34:59;41.87;;;22.17;;
5149;SDS011;2593;52.466;13.436;2023-03-02T06:37:29;45.77;;;21.40;;
5149;SDS011;2593;52.466;13.436;2023-03-02T06:39:55;47.57;;;23.13;;
5149;SDS011;2593;52.466;13.436;2023-03-02T06:42:22;51.03;;;23.97;;
5149;SDS011;2593;52.466;13.436;2023-03-02T06:44:48;48.37;;;22.00;;
5149;SDS011;2593;52.466;13.436;2023-03-02T06:47:15;55.23;;;24.47;;
5149;SDS011;2593;52.466;13.436;2023-03-02T06:49:41;49.73;;;25.10;;
5149;SDS011;2593;52.466;13.436;2023-03-02T06:52:07;52.93;;;24.53;;
5149;SDS011;2593;52.466;13.436;2023-03-02T06:54:35;46.10;;;23.23;;
5149;SDS011;2593;52.466;13.436;2023-03-02T06:57:01;47.70;;;23.23;;
5149;SDS011;2593;52.466;13.436;2023-03-02T06:59:27;51.10;;;23.80;;
5149;SDS011;2593;52.466;13.436;2023-03-02T07:01:52;53.43;;;23.73;;
5149;SDS011;2593;52.466;13.436;2023-03-02T07:04:18;47.37;;;23.37;;
5149;SDS011;2593;52.466;13.436;2023-03-02T07:06:44;44.93;;;23.20;;
5149;SDS011;2593;52.466;13.436;2023-03-02T07:09:09;51.13;;;22.80;;
5149;SDS011;2593;52.466;13.436;2023-03-02T07:11:35;47.97;;;23.00;;
5149;SDS011;2593;52.466;13.436;2023-03-02T07:14:01;50.37;;;22.70;;
5149;SDS011;2593;52.466;13.436;2023-03-02T07:16:27;49.63;;;23.37;;
5149;SDS011;2593;52.466;13.436;2023-03-02T07:18:53;47.10;;;23.13;;
5149;SDS011;2593;52.466;13.436;2023-03-02T07:21:18;49.20;;;22.87;;
5149;SDS011;2593;52.466;13.436;2023-03-02T07:23:44;64.07;;;23.60;;
5149;SDS011;2593;52.466;13.436;2023-03-02T07:26:10;56.47;;;23.57;;
5149;SDS011;2593;52.466;13.436;2023-03-02T07:28:36;52.57;;;23.37;;
5149;SDS011;2593;52.466;13.436;2023-03-02T07:31:03;76.77;;;24.00;;
5149;SDS011;2593;52.466;13.436;2023-03-02T07:33:29;55.57;;;24.10;;
5149;SDS011;2593;52.466;13.436;2023-03-02T07:35:55;53.63;;;23.30;;
5149;SDS011;2593;52.466;13.436;2023-03-02T07:38:21;50.67;;;23.63;;
5149;SDS011;2593;52.466;13.436;2023-03-02T07:40:46;53.70;;;23.57;;
5149;SDS011;2593;52.466;13.436;2023-03-02T07:43:12;49.70;;;22.30;;
5149;SDS011;2593;52.466;13.436;2023-03-02T07:45:38;49.60;;;23.37;;
5149;SDS011;2593;52.466;13.436;2023-03-02T07:48:03;56.77;;;24.50;;
5149;SDS011;2593;52.466;13.436;2023-03-02T07:50:30;64.53;;;24.47;;
5149;SDS011;2593;52.466;13.436;2023-03-02T07:52:56;45.90;;;21.40;;
5149;SDS011;2593;52.466;13.436;2023-03-02T07:55:22;45.63;;;21.17;;
5149;SDS011;2593;52.466;13.436;2023-03-02T07:57:47;47.07;;;21.47;;
5149;SDS011;2593;52.466;13.436;2023-03-02T08:00:13;53.13;;;22.20;;
5149;SDS011;2593;52.466;13.436;2023-03-02T08:02:40;44.97;;;22.13;;
5149;SDS011;2593;52.466;13.436;2023-03-02T08:05:06;50.03;;;22.43;;
5149;SDS011;2593;52.466;13.436;2023-03-02T08:07:32;45.27;;;22.20;;
5149;SDS011;2593;52.466;13.436;2023-03-02T08:09:58;69.23;;;25.43;;
5149;SDS011;2593;52.466;13.436;2023-03-02T08:12:25;65.17;;;23.63;;
5149;SDS011;2593;52.466;13.436;2023-03-02T08:14:54;46.53;;;23.00;;
5149;SDS011;2593;52.466;13.436;2023-03-02T08:17:19;51.37;;;21.33;;
5149;SDS011;2593;52.466;13.436;2023-03-02T08:19:45;46.40;;;22.30;;
5149;SDS011;2593;52.466;13.436;2023-03-02T08:22:11;48.17;;;21.43;;
5149;SDS011;2593;52.466;13.436;2023-03-02T08:24:37;60.63;;;21.40;;
5149;SDS011;2593;52.466;13.436;2023-03-02T08:27:05;47.90;;;20.47;;
5149;SDS011;2593;52.466;13.436;2023-03-02T08:29:38;43.30;;;20.20;;
5149;SDS011;2593;52.466;13.436;2023-03-02T08:32:03;45.20;;;20.37;;
5149;SDS011;2593;52.466;13.436;2023-03-02T08:34:29;44.50;;;20.90;;
5149;SDS011;2593;52.466;13.436;2023-03-02T08:36:55;49.03;;;21.70;;
5149;SDS011;2593;52.466;13.436;2023-03-02T08:39:21;39.50;;;19.20;;
5149;SDS011;2593;52.466;13.436;2023-03-02T08:41:50;45.73;;;20.00;;
5149;SDS011;2593;52.466;13.436;2023-03-02T08:44:17;50.13;;;23.50;;
5149;SDS011;2593;52.466;13.436;2023-03-02T08:46:44;49.50;;;22.47;;
5149;SDS011;2593;52.466;13.436;2023-03-02T08:49:10;50.50;;;22.97;;
5149;SDS011;2593;52.466;13.436;2023-03-02T08:51:36;62.03;;;22.47;;
5149;SDS011;2593;52.466;13.436;2023-03-02T08:54:01;53.63;;;23.37;;
5149;SDS011;2593;52.466;13.436;2023-03-02T08:56:28;57.90;;;24.47;;
5149;SDS011;2593;52.466;13.436;2023-03-02T08:58:59;59.63;;;23.63;;
5149;SDS011;2593;52.466;13.436;2023-03-02T09:01:28;57.63;;;23.93;;
5149;SDS011;2593;52.466;13.436;2023-03-02T09:03:57;51.40;;;24.43;;
5149;SDS011;2593;52.466;13.436;2023-03-02T09:06:24;75.20;;;24.30;;
5149;SDS011;2593;52.466;13.436;2023-03-02T09:08:54;60.00;;;25.20;;
5149;SDS011;2593;52.466;13.436;2023-03-02T09:11:20;81.07;;;25.30;;
5149;SDS011;2593;52.466;13.436;2023-03-02T09:13:46;66.57;;;28.00;;
5149;SDS011;2593;52.466;13.436;2023-03-02T09:16:12;76.77;;;28.17;;
5149;SDS011;2593;52.466;13.436;2023-03-02T09:18:38;63.80;;;25.90;;
5149;SDS011;2593;52.466;13.436;2023-03-02T09:21:04;61.73;;;25.57;;
5149;SDS011;2593;52.466;13.436;2023-03-02T09:23:30;61.63;;;26.97;;
5149;SDS011;2593;52.466;13.436;2023-03-02T09:25:57;66.47;;;26.90;;
5149;SDS011;2593;52.466;13.436;2023-03-02T09:28:23;70.40;;;25.80;;
5149;SDS011;2593;52.466;13.436;2023-03-02T09:30:50;72.37;;;26.03;;
5149;SDS011;2593;52.466;13.436;2023-03-02T09:33:17;73.43;;;28.37;;
5149;SDS011;2593;52.466;13.436;2023-03-02T09:35:43;83.17;;;27.37;;
5149;SDS011;2593;52.466;13.436;2023-03-02T09:38:10;98.07;;;31.50;;
5149;SDS011;2593;52.466;13.436;2023-03-02T09:40:41;94.17;;;33.17;;
5149;SDS011;2593;52.466;13.436;2023-03-02T09:48:43;71.10;;;24.73;;
5149;SDS011;2593;52.466;13.436;2023-03-02T09:51:27;80.60;;;27.90;;
5149;SDS011;2593;52.466;13.436;2023-03-02T09:54:24;74.17;;;27.97;;
5149;SDS011;2593;52.466;13.436;2023-03-02T09:56:54;64.53;;;27.50;;
5149;SDS011;2593;52.466;13.436;2023-03-02T09:59:23;72.27;;;26.27;;
5149;SDS011;2593;52.466;13.436;2023-03-02T10:01:58;65.37;;;26.03;;
5149;SDS011;2593;52.466;13.436;2023-03-02T10:04:49;78.23;;;25.97;;
5149;SDS011;2593;52.466;13.436;2023-03-02T10:07:24;66.80;;;24.93;;
5149;SDS011;2593;52.466;13.436;2023-03-02T10:09:52;63.27;;;25.93;;
5149;SDS011;2593;52.466;13.436;2023-03-02T10:18:03;90.57;;;29.67;;
5149;SDS011;2593;52.466;13.436;2023-03-02T10:23:18;91.40;;;30.03;;
5149;SDS011;2593;52.466;13.436;2023-03-02T10:25:51;91.97;;;29.80;;
5149;SDS011;2593;52.466;13.436;2023-03-02T10:28:27;102.53;;;32.20;;
5149;SDS011;2593;52.466;13.436;2023-03-02T10:31:10;84.40;;;31.70;;
5149;SDS011;2593;52.466;13.436;2023-03-02T10:33:49;83.30;;;29.13;;
5149;SDS011;2593;52.466;13.436;2023-03-02T10:36:36;62.93;;;26.60;;
5149;SDS011;2593;52.466;13.436;2023-03-02T10:39:12;67.70;;;27.07;;
5149;SDS011;2593;52.466;13.436;2023-03-02T10:41:43;71.17;;;26.53;;
5149;SDS011;2593;52.466;13.436;2023-03-02T10:44:27;58.93;;;26.40;;
5149;SDS011;2593;52.466;13.436;2023-03-02T10:46:55;70.57;;;27.90;;
5149;SDS011;2593;52.466;13.436;2023-03-02T10:52:01;73.87;;;29.63;;
5149;SDS011;2593;52.466;13.436;2023-03-02T10:54:36;87.03;;;29.83;;
5149;SDS011;2593;52.466;13.436;2023-03-02T10:57:03;68.07;;;27.73;;
5149;SDS011;2593;52.466;13.436;2023-03-02T10:59:45;60.30;;;25.50;;
5149;SDS011;2593;52.466;13.436;2023-03-02T11:02:15;74.57;;;25.30;;
5149;SDS011;2593;52.466;13.436;2023-03-02T11:04:46;52.20;;;25.37;;
5149;SDS011;2593;52.466;13.436;2023-03-02T11:07:19;67.57;;;26.57;;
5149;SDS011;2593;52.466;13.436;2023-03-02T11:12:31;54.30;;;23.40;;
5149;SDS011;2593;52.466;13.436;2023-03-02T11:20:32;62.10;;;25.57;;
5149;SDS011;2593;52.466;13.436;2023-03-02T11:23:47;68.37;;;29.33;;
5149;SDS011;2593;52.466;13.436;2023-03-02T11:26:02;90.77;;;32.23;;
5149;SDS011;2593;52.466;13.436;2023-03-02T11:31:09;64.20;;;28.90;;
5149;SDS011;2593;52.466;13.436;2023-03-02T11:36:19;51.43;;;25.00;;
5149;SDS011;2593;52.466;13.436;2023-03-02T11:38:52;50.40;;;24.40;;
5149;SDS011;2593;52.466;13.436;2023-03-02T11:44:08;83.30;;;27.20;;
5149;SDS011;2593;52.466;13.436;2023-03-02T11:46:48;75.50;;;31.20;;
5149;SDS011;2593;52.466;13.436;2023-03-02T11:49:25;77.97;;;29.87;;
5149;SDS011;2593;52.466;13.436;2023-03-02T11:52:02;48.97;;;23.30;;
5149;SDS011;2593;52.466;13.436;2023-03-02T11:54:32;60.73;;;27.90;;
5149;SDS011;2593;52.466;13.436;2023-03-02T11:57:05;56.30;;;21.77;;
5149;SDS011;2593;52.466;13.436;2023-03-02T11:59:40;54.63;;;23.53;;
5149;SDS011;2593;52.466;13.436;2023-03-02T12:02:07;41.67;;;20.53;;
5149;SDS011;2593;52.466;13.436;2023-03-02T12:04:37;40.37;;;20.40;;
5149;SDS011;2593;52.466;13.436;2023-03-02T12:07:15;49.73;;;22.43;;
5149;SDS011;2593;52.466;13.436;2023-03-02T12:09:43;53.50;;;24.20;;
5149;SDS011;2593;52.466;13.436;2023-03-02T12:14:50;51.13;;;23.00;;
5149;SDS011;2593;52.466;13.436;2023-03-02T12:20:06;39.33;;;20.70;;
5149;SDS011;2593;52.466;13.436;2023-03-02T12:22:46;42.17;;;19.83;;
5149;SDS011;2593;52.466;13.436;2023-03-02T12:27:43;33.70;;;18.77;;
5149;SDS011;2593;52.466;13.436;2023-03-02T12:32:40;51.20;;;22.03;;
5149;SDS011;2593;52.466;13.436;2023-03-02T12:35:10;44.00;;;20.27;;
5149;SDS011;2593;52.466;13.436;2023-03-02T12:40:24;47.37;;;22.03;;
5149;SDS011;2593;52.466;13.436;2023-03-02T12:51:22;49.80;;;22.70;;
5149;SDS011;2593;52.466;13.436;2023-03-02T12:54:00;50.43;;;21.13;;
5149;SDS011;2593;52.466;13.436;2023-03-02T12:56:30;57.30;;;21.20;;
5149;SDS011;2593;52.466;13.436;2023-03-02T12:58:56;46.70;;;20.00;;
5149;SDS011;2593;52.466;13.436;2023-03-02T13:01:27;49.03;;;19.07;;
5149;SDS011;2593;52.466;13.436;2023-03-02T13:03:54;39.63;;;17.57;;
5149;SDS011;2593;52.466;13.436;2023-03-02T13:06:20;36.63;;;17.80;;
5149;SDS011;2593;52.466;13.436;2023-03-02T13:08:52;30.87;;;15.17;;
5149;SDS011;2593;52.466;13.436;2023-03-02T13:11:21;34.73;;;14.97;;
5149;SDS011;2593;52.466;13.436;2023-03-02T13:13:51;51.47;;;17.70;;
5149;SDS011;2593;52.466;13.436;2023-03-02T13:16:18;42.97;;;16.33;;
5149;SDS011;2593;52.466;13.436;2023-03-02T13:18:59;36.80;;;16.33;;
5149;SDS011;2593;52.466;13.436;2023-03-02T13:21:34;32.57;;;17.10;;
5149;SDS011;2593;52.466;13.436;2023-03-02T13:24:03;31.93;;;16.87;;
5149;SDS011;2593;52.466;13.436;2023-03-02T13:26:55;33.93;;;15.20;;
5149;SDS011;2593;52.466;13.436;2023-03-02T13:29:25;26.03;;;14.10;;
5149;SDS011;2593;52.466;13.436;2023-03-02T13:31:51;29.67;;;14.33;;
5149;SDS011;2593;52.466;13.436;2023-03-02T13:34:25;23.70;;;12.80;;
5149;SDS011;2593;52.466;13.436;2023-03-02T13:36:53;26.73;;;13.43;;
5149;SDS011;2593;52.466;13.436;2023-03-02T13:39:20;22.90;;;12.67;;
5149;SDS011;2593;52.466;13.436;2023-03-02T13:41:53;23.90;;;13.77;;
5149;SDS011;2593;52.466;13.436;2023-03-02T13:44:30;21.10;;;11.30;;
5149;SDS011;2593;52.466;13.436;2023-03-02T13:46:58;25.33;;;11.10;;
5149;SDS011;2593;52.466;13.436;2023-03-02T13:49:28;26.80;;;12.73;;
5149;SDS011;2593;52.466;13.436;2023-03-02T13:52:04;28.70;;;10.90;;
5149;SDS011;2593;52.466;13.436;2023-03-02T13:54:51;25.07;;;13.00;;
5149;SDS011;2593;52.466;13.436;2023-03-02T13:57:20;28.30;;;13.30;;
5149;SDS011;2593;52.466;13.436;2023-03-02T13:59:57;40.90;;;16.40;;
5149;SDS011;2593;52.466;13.436;2023-03-02T14:02:24;31.53;;;15.97;;
5149;SDS011;2593;52.466;13.436;2023-03-02T14:04:52;25.17;;;12.83;;
5149;SDS011;2593;52.466;13.436;2023-03-02T14:07:17;21.40;;;13.10;;
5149;SDS011;2593;52.466;13.436;2023-03-02T14:09:44;23.73;;;12.17;;
5149;SDS011;2593;52.466;13.436;2023-03-02T14:12:45;30.97;;;13.97;;
5149;SDS011;2593;52.466;13.436;2023-03-02T14:15:05;29.20;;;13.50;;
5149;SDS011;2593;52.466;13.436;2023-03-02T14:17:31;29.20;;;12.90;;
5149;SDS011;2593;52.466;13.436;2023-03-02T14:19:57;30.27;;;13.03;;
5149;SDS011;2593;52.466;13.436;2023-03-02T14:22:24;20.50;;;12.30;;
5149;SDS011;2593;52.466;13.436;2023-03-02T14:24:51;36.23;;;12.20;;
5149;SDS011;2593;52.466;13.436;2023-03-02T14:27:17;25.40;;;13.47;;
5149;SDS011;2593;52.466;13.436;2023-03-02T14:29:44;28.00;;;14.40;;
5149;SDS011;2593;52.466;13.436;2023-03-02T14:32:11;19.50;;;11.70;;
5149;SDS011;2593;52.466;13.436;2023-03-02T14:34:38;21.60;;;11.40;;
5149;SDS011;2593;52.466;13.436;2023-03-02T14:37:05;19.53;;;11.00;;
5149;SDS011;2593;52.466;13.436;2023-03-02T14:39:35;23.30;;;10.03;;
5149;SDS011;2593;52.466;13.436;2023-03-02T14:42:02;17.37;;;11.07;;
5149;SDS011;2593;52.466;13.436;2023-03-02T14:44:29;20.63;;;11.00;;
5149;SDS011;2593;52.466;13.436;2023-03-02T14:46:55;19.53;;;10.00;;
5149;SDS011;2593;52.466;13.436;2023-03-02T14:49:21;16.97;;;11.17;;
5149;SDS011;2593;52.466;13.436;2023-03-02T14:51:54;18.27;;;10.80;;
5149;SDS011;2593;52.466;13.436;2023-03-02T14:54:21;25.03;;;12.87;;
5149;SDS011;2593;52.466;13.436;2023-03-02T14:56:47;22.37;;;11.60;;
5149;SDS011;2593;52.466;13.436;2023-03-02T14:59:13;20.67;;;12.20;;
5149;SDS011;2593;52.466;13.436;2023-03-02T15:01:39;27.23;;;13.40;;
5149;SDS011;2593;52.466;13.436;2023-03-02T15:04:08;31.07;;;13.60;;
5149;SDS011;2593;52.466;13.436;2023-03-02T15:06:36;27.90;;;14.33;;
5149;SDS011;2593;52.466;13.436;2023-03-02T15:09:04;31.67;;;14.10;;
5149;SDS011;2593;52.466;13.436;2023-03-02T15:11:30;33.77;;;15.20;;
5149;SDS011;2593;52.466;13.436;2023-03-02T15:13:55;36.80;;;15.73;;
5149;SDS011;2593;52.466;13.436;2023-03-02T15:16:21;40.20;;;17.47;;
5149;SDS011;2593;52.466;13.436;2023-03-02T15:18:47;41.13;;;19.83;;
5149;SDS011;2593;52.466;13.436;2023-03-02T15:21:14;43.27;;;19.10;;
5149;SDS011;2593;52.466;13.436;2023-03-02T15:23:42;48.57;;;21.60;;
5149;SDS011;2593;52.466;13.436;2023-03-02T15:26:08;50.70;;;21.90;;
5149;SDS011;2593;52.466;13.436;2023-03-02T15:28:35;53.13;;;23.07;;
5149;SDS011;2593;52.466;13.436;2023-03-02T15:31:08;49.57;;;23.60;;
5149;SDS011;2593;52.466;13.436;2023-03-02T15:33:35;53.20;;;22.93;;
5149;SDS011;2593;52.466;13.436;2023-03-02T15:36:01;66.47;;;25.40;;
5149;SDS011;2593;52.466;13.436;2023-03-02T15:38:30;65.33;;;25.50;;
5149;SDS011;2593;52.466;13.436;2023-03-02T15:40:55;89.70;;;28.67;;
5149;SDS011;2593;52.466;13.436;2023-03-02T15:43:21;86.13;;;27.57;;
5149;SDS011;2593;52.466;13.436;2023-03-02T15:45:48;101.73;;;33.17;;
5149;SDS011;2593;52.466;13.436;2023-03-02T15:48:14;93.23;;;30.90;;
5149;SDS011;2593;52.466;13.436;2023-03-02T15:50:40;88.77;;;31.37;;
5149;SDS011;2593;52.466;13.436;2023-03-02T15:53:05;109.70;;;33.50;;
5149;SDS011;2593;52.466;13.436;2023-03-02T15:55:31;93.50;;;32.47;;